sensor_id;sensor_type;location;lat;lon;timestamp;P1;durP1;ratioP1;P2;durP2;ratioP2
27794;SDS011;15176;50.844;4.412;2023-04-24T00:00:10;25.60;;;12.93;;
27794;SDS011;15176;50.844;4.412;2023-04-24T00:02:39;24.77;;;12.90;;
27794;SDS011;15176;50.844;4.412;2023-04-24T00:05:06;22.42;;;11.98;;
27794;SDS011;15176;50.844;4.412;2023-04-24T00:07:33;22.80;;;12.43;;
27794;SDS011;15176;50.844;4.412;2023-04-24T00:09:59;22.98;;;12.25;;
27794;SDS011;15176;50.844;4.412;2023-04-24T00:12:25;24.95;;;12.07;;
27794;SDS011;15176;50.844;4.412;2023-04-24T00:14:51;28.50;;;13.50;;
27794;SDS011;15176;50.844;4.412;2023-04-24T00:17:17;27.42;;;13.15;;
27794;SDS011;15176;50.844;4.412;2023-04-24T00:19:46;28.80;;;13.30;;
27794;SDS011;15176;50.844;4.412;2023-04-24T00:22:12;24.40;;;12.05;;
27794;SDS011;15176;50.844;4.412;2023-04-24T00:24:39;28.02;;;13.27;;
27794;SDS011;15176;50.844;4.412;2023-04-24T00:27:05;27.38;;;13.13;;
27794;SDS011;15176;50.844;4.412;2023-04-24T00:29:31;23.77;;;12.32;;
27794;SDS011;15176;50.844;4.412;2023-04-24T00:31:56;23.27;;;12.40;;
27794;SDS011;15176;50.844;4.412;2023-04-24T00:34:22;24.75;;;12.63;;
27794;SDS011;15176;50.844;4.412;2023-04-24T00:36:48;24.70;;;12.63;;
27794;SDS011;15176;50.844;4.412;2023-04-24T00:39:18;30.70;;;13.43;;
27794;SDS011;15176;50.844;4.412;2023-04-24T00:41:45;25.52;;;12.80;;
27794;SDS011;15176;50.844;4.412;2023-04-24T00:44:11;26.45;;;12.43;;
27794;SDS011;15176;50.844;4.412;2023-04-24T00:46:37;26.50;;;13.27;;
27794;SDS011;15176;50.844;4.412;2023-04-24T00:49:04;26.70;;;13.02;;
27794;SDS011;15176;50.844;4.412;2023-04-24T00:51:31;25.10;;;12.73;;
27794;SDS011;15176;50.844;4.412;2023-04-24T00:53:58;27.90;;;12.45;;
27794;SDS011;15176;50.844;4.412;2023-04-24T00:56:25;24.55;;;12.93;;
27794;SDS011;15176;50.844;4.412;2023-04-24T00:58:51;27.13;;;12.73;;
27794;SDS011;15176;50.844;4.412;2023-04-24T01:01:20;28.02;;;12.85;;
27794;SDS011;15176;50.844;4.412;2023-04-24T01:03:47;22.63;;;11.43;;
27794;SDS011;15176;50.844;4.412;2023-04-24T01:06:15;23.45;;;11.77;;
27794;SDS011;15176;50.844;4.412;2023-04-24T01:08:43;20.48;;;12.25;;
27794;SDS011;15176;50.844;4.412;2023-04-24T01:11:10;25.75;;;13.25;;
27794;SDS011;15176;50.844;4.412;2023-04-24T01:13:36;24.50;;;13.40;;
27794;SDS011;15176;50.844;4.412;2023-04-24T01:16:02;29.27;;;12.57;;
27794;SDS011;15176;50.844;4.412;2023-04-24T01:18:28;22.73;;;13.20;;
27794;SDS011;15176;50.844;4.412;2023-04-24T01:20:56;25.95;;;13.07;;
27794;SDS011;15176;50.844;4.412;2023-04-24T01:23:23;23.05;;;12.88;;
27794;SDS011;15176;50.844;4.412;2023-04-24T01:25:49;20.77;;;12.60;;
27794;SDS011;15176;50.844;4.412;2023-04-24T01:28:16;26.45;;;12.90;;
27794;SDS011;15176;50.844;4.412;2023-04-24T01:30:43;23.60;;;12.13;;
27794;SDS011;15176;50.844;4.412;2023-04-24T01:33:09;21.83;;;12.15;;
27794;SDS011;15176;50.844;4.412;2023-04-24T01:35:35;25.33;;;12.52;;
27794;SDS011;15176;50.844;4.412;2023-04-24T01:38:02;22.73;;;11.95;;
27794;SDS011;15176;50.844;4.412;2023-04-24T01:40:29;22.45;;;11.65;;
27794;SDS011;15176;50.844;4.412;2023-04-24T01:42:55;19.92;;;10.85;;
27794;SDS011;15176;50.844;4.412;2023-04-24T01:45:21;19.50;;;11.05;;
27794;SDS011;15176;50.844;4.412;2023-04-24T01:47:47;20.00;;;11.10;;
27794;SDS011;15176;50.844;4.412;2023-04-24T01:50:14;16.60;;;10.35;;
27794;SDS011;15176;50.844;4.412;2023-04-24T01:52:39;20.60;;;11.07;;
27794;SDS011;15176;50.844;4.412;2023-04-24T01:55:06;21.58;;;11.23;;
27794;SDS011;15176;50.844;4.412;2023-04-24T01:57:32;19.83;;;11.60;;
27794;SDS011;15176;50.844;4.412;2023-04-24T01:59:58;19.65;;;11.27;;
27794;SDS011;15176;50.844;4.412;2023-04-24T02:02:24;16.52;;;10.65;;
27794;SDS011;15176;50.844;4.412;2023-04-24T02:04:52;19.95;;;11.02;;
27794;SDS011;15176;50.844;4.412;2023-04-24T02:07:19;18.20;;;11.43;;
27794;SDS011;15176;50.844;4.412;2023-04-24T02:09:45;17.38;;;11.27;;
27794;SDS011;15176;50.844;4.412;2023-04-24T02:12:10;20.38;;;11.75;;
27794;SDS011;15176;50.844;4.412;2023-04-24T02:14:37;23.60;;;12.82;;
27794;SDS011;15176;50.844;4.412;2023-04-24T02:17:03;22.38;;;13.50;;
27794;SDS011;15176;50.844;4.412;2023-04-24T02:19:30;21.05;;;12.40;;
27794;SDS011;15176;50.844;4.412;2023-04-24T02:21:55;23.60;;;13.40;;
27794;SDS011;15176;50.844;4.412;2023-04-24T02:24:21;26.33;;;13.88;;
27794;SDS011;15176;50.844;4.412;2023-04-24T02:26:47;21.92;;;13.40;;
27794;SDS011;15176;50.844;4.412;2023-04-24T02:29:13;21.83;;;13.10;;
27794;SDS011;15176;50.844;4.412;2023-04-24T02:31:39;25.70;;;13.60;;
27794;SDS011;15176;50.844;4.412;2023-04-24T02:34:05;24.25;;;12.85;;
27794;SDS011;15176;50.844;4.412;2023-04-24T02:36:31;21.02;;;12.98;;
27794;SDS011;15176;50.844;4.412;2023-04-24T02:38:56;22.85;;;12.77;;
27794;SDS011;15176;50.844;4.412;2023-04-24T02:41:22;23.20;;;13.35;;
27794;SDS011;15176;50.844;4.412;2023-04-24T02:43:48;21.10;;;13.57;;
27794;SDS011;15176;50.844;4.412;2023-04-24T02:46:14;27.83;;;13.75;;
27794;SDS011;15176;50.844;4.412;2023-04-24T02:48:39;22.25;;;13.13;;
27794;SDS011;15176;50.844;4.412;2023-04-24T02:51:05;21.20;;;12.43;;
27794;SDS011;15176;50.844;4.412;2023-04-24T02:53:31;23.52;;;12.70;;
27794;SDS011;15176;50.844;4.412;2023-04-24T02:55:57;23.85;;;12.38;;
27794;SDS011;15176;50.844;4.412;2023-04-24T02:58:23;20.50;;;12.27;;
27794;SDS011;15176;50.844;4.412;2023-04-24T03:00:49;22.98;;;12.32;;
27794;SDS011;15176;50.844;4.412;2023-04-24T03:03:19;20.58;;;11.70;;
27794;SDS011;15176;50.844;4.412;2023-04-24T03:05:45;22.77;;;10.35;;
27794;SDS011;15176;50.844;4.412;2023-04-24T03:08:11;19.55;;;11.57;;
27794;SDS011;15176;50.844;4.412;2023-04-24T03:10:36;17.30;;;11.18;;
27794;SDS011;15176;50.844;4.412;2023-04-24T03:13:02;18.42;;;11.38;;
27794;SDS011;15176;50.844;4.412;2023-04-24T03:15:28;20.58;;;11.48;;
27794;SDS011;15176;50.844;4.412;2023-04-24T03:17:54;20.80;;;11.07;;
27794;SDS011;15176;50.844;4.412;2023-04-24T03:20:20;16.70;;;9.80;;
27794;SDS011;15176;50.844;4.412;2023-04-24T03:22:47;17.85;;;8.98;;
27794;SDS011;15176;50.844;4.412;2023-04-24T03:25:13;18.50;;;8.93;;
27794;SDS011;15176;50.844;4.412;2023-04-24T03:27:39;17.90;;;8.88;;
27794;SDS011;15176;50.844;4.412;2023-04-24T03:30:06;15.45;;;8.73;;
27794;SDS011;15176;50.844;4.412;2023-04-24T03:32:33;15.80;;;9.07;;
27794;SDS011;15176;50.844;4.412;2023-04-24T03:34:59;16.83;;;9.20;;
27794;SDS011;15176;50.844;4.412;2023-04-24T03:37:25;16.20;;;8.90;;
27794;SDS011;15176;50.844;4.412;2023-04-24T03:39:51;14.45;;;7.20;;
27794;SDS011;15176;50.844;4.412;2023-04-24T03:42:17;13.80;;;8.32;;
27794;SDS011;15176;50.844;4.412;2023-04-24T03:44:43;14.05;;;8.93;;
27794;SDS011;15176;50.844;4.412;2023-04-24T03:47:17;15.93;;;8.52;;
27794;SDS011;15176;50.844;4.412;2023-04-24T03:49:43;14.27;;;7.70;;
27794;SDS011;15176;50.844;4.412;2023-04-24T03:52:09;15.38;;;8.18;;
27794;SDS011;15176;50.844;4.412;2023-04-24T03:54:34;13.65;;;8.00;;
27794;SDS011;15176;50.844;4.412;2023-04-24T03:57:03;16.80;;;7.95;;
27794;SDS011;15176;50.844;4.412;2023-04-24T03:59:29;14.48;;;8.05;;
27794;SDS011;15176;50.844;4.412;2023-04-24T04:01:55;17.58;;;8.23;;
27794;SDS011;15176;50.844;4.412;2023-04-24T04:04:21;13.18;;;7.80;;
27794;SDS011;15176;50.844;4.412;2023-04-24T04:06:47;12.02;;;6.53;;
27794;SDS011;15176;50.844;4.412;2023-04-24T04:09:13;12.80;;;7.50;;
27794;SDS011;15176;50.844;4.412;2023-04-24T04:11:38;11.07;;;7.32;;
27794;SDS011;15176;50.844;4.412;2023-04-24T04:14:04;9.85;;;5.38;;
27794;SDS011;15176;50.844;4.412;2023-04-24T04:16:30;11.50;;;6.78;;
27794;SDS011;15176;50.844;4.412;2023-04-24T04:18:56;11.52;;;6.38;;
27794;SDS011;15176;50.844;4.412;2023-04-24T04:21:22;9.98;;;5.88;;
27794;SDS011;15176;50.844;4.412;2023-04-24T04:23:47;9.52;;;5.80;;
27794;SDS011;15176;50.844;4.412;2023-04-24T04:26:13;9.15;;;5.63;;
27794;SDS011;15176;50.844;4.412;2023-04-24T04:28:39;9.63;;;5.60;;
27794;SDS011;15176;50.844;4.412;2023-04-24T04:31:05;11.05;;;5.80;;
27794;SDS011;15176;50.844;4.412;2023-04-24T04:33:32;12.93;;;5.40;;
27794;SDS011;15176;50.844;4.412;2023-04-24T04:35:58;8.18;;;4.88;;
27794;SDS011;15176;50.844;4.412;2023-04-24T04:38:25;12.48;;;5.40;;
27794;SDS011;15176;50.844;4.412;2023-04-24T04:40:54;9.93;;;5.55;;
27794;SDS011;15176;50.844;4.412;2023-04-24T04:43:22;8.88;;;5.45;;
27794;SDS011;15176;50.844;4.412;2023-04-24T04:45:49;9.40;;;5.32;;
27794;SDS011;15176;50.844;4.412;2023-04-24T04:48:16;10.50;;;4.60;;
27794;SDS011;15176;50.844;4.412;2023-04-24T04:50:42;8.50;;;5.13;;
27794;SDS011;15176;50.844;4.412;2023-04-24T04:53:08;9.80;;;5.43;;
27794;SDS011;15176;50.844;4.412;2023-04-24T04:55:33;10.50;;;6.00;;
27794;SDS011;15176;50.844;4.412;2023-04-24T04:57:59;13.30;;;5.85;;
27794;SDS011;15176;50.844;4.412;2023-04-24T05:00:25;20.60;;;10.55;;
27794;SDS011;15176;50.844;4.412;2023-04-24T05:02:52;13.10;;;7.35;;
27794;SDS011;15176;50.844;4.412;2023-04-24T05:05:18;12.30;;;6.63;;
27794;SDS011;15176;50.844;4.412;2023-04-24T05:07:44;17.13;;;7.82;;
27794;SDS011;15176;50.844;4.412;2023-04-24T05:10:09;15.25;;;8.57;;
27794;SDS011;15176;50.844;4.412;2023-04-24T05:12:36;13.15;;;7.47;;
27794;SDS011;15176;50.844;4.412;2023-04-24T05:15:02;16.80;;;8.30;;
27794;SDS011;15176;50.844;4.412;2023-04-24T05:17:28;16.02;;;8.48;;
27794;SDS011;15176;50.844;4.412;2023-04-24T05:19:54;17.38;;;8.73;;
27794;SDS011;15176;50.844;4.412;2023-04-24T05:22:20;16.83;;;8.98;;
27794;SDS011;15176;50.844;4.412;2023-04-24T05:24:46;16.65;;;9.00;;
27794;SDS011;15176;50.844;4.412;2023-04-24T05:27:12;19.25;;;9.80;;
27794;SDS011;15176;50.844;4.412;2023-04-24T05:29:38;16.83;;;9.57;;
27794;SDS011;15176;50.844;4.412;2023-04-24T05:32:05;14.48;;;8.20;;
27794;SDS011;15176;50.844;4.412;2023-04-24T05:34:31;13.57;;;7.55;;
27794;SDS011;15176;50.844;4.412;2023-04-24T05:36:58;18.73;;;9.23;;
27794;SDS011;15176;50.844;4.412;2023-04-24T05:39:24;16.50;;;8.45;;
27794;SDS011;15176;50.844;4.412;2023-04-24T05:41:50;15.13;;;9.20;;
27794;SDS011;15176;50.844;4.412;2023-04-24T05:44:16;17.92;;;8.27;;
27794;SDS011;15176;50.844;4.412;2023-04-24T05:46:41;17.23;;;9.35;;
27794;SDS011;15176;50.844;4.412;2023-04-24T05:49:07;16.58;;;8.75;;
27794;SDS011;15176;50.844;4.412;2023-04-24T05:51:33;22.88;;;9.73;;
27794;SDS011;15176;50.844;4.412;2023-04-24T05:54:00;15.85;;;9.27;;
27794;SDS011;15176;50.844;4.412;2023-04-24T05:56:27;20.83;;;9.23;;
27794;SDS011;15176;50.844;4.412;2023-04-24T05:58:54;19.60;;;9.85;;
27794;SDS011;15176;50.844;4.412;2023-04-24T06:01:20;19.00;;;10.52;;
27794;SDS011;15176;50.844;4.412;2023-04-24T06:03:48;19.67;;;9.65;;
27794;SDS011;15176;50.844;4.412;2023-04-24T06:06:14;16.48;;;8.93;;
27794;SDS011;15176;50.844;4.412;2023-04-24T06:08:41;13.57;;;8.27;;
27794;SDS011;15176;50.844;4.412;2023-04-24T06:11:09;19.33;;;9.60;;
27794;SDS011;15176;50.844;4.412;2023-04-24T06:13:34;19.13;;;9.05;;
27794;SDS011;15176;50.844;4.412;2023-04-24T06:16:00;20.33;;;10.57;;
27794;SDS011;15176;50.844;4.412;2023-04-24T06:18:26;20.05;;;9.68;;
27794;SDS011;15176;50.844;4.412;2023-04-24T06:20:52;21.80;;;10.52;;
27794;SDS011;15176;50.844;4.412;2023-04-24T06:23:18;20.73;;;10.68;;
27794;SDS011;15176;50.844;4.412;2023-04-24T06:25:43;20.38;;;10.35;;
27794;SDS011;15176;50.844;4.412;2023-04-24T06:28:09;20.95;;;10.70;;
27794;SDS011;15176;50.844;4.412;2023-04-24T06:30:35;16.65;;;9.38;;
27794;SDS011;15176;50.844;4.412;2023-04-24T06:33:03;17.15;;;8.77;;
27794;SDS011;15176;50.844;4.412;2023-04-24T06:35:29;24.65;;;10.68;;
27794;SDS011;15176;50.844;4.412;2023-04-24T06:37:54;25.88;;;10.95;;
27794;SDS011;15176;50.844;4.412;2023-04-24T06:40:21;23.02;;;11.27;;
27794;SDS011;15176;50.844;4.412;2023-04-24T06:42:47;27.50;;;12.15;;
27794;SDS011;15176;50.844;4.412;2023-04-24T06:45:13;19.20;;;11.40;;
27794;SDS011;15176;50.844;4.412;2023-04-24T06:47:38;24.95;;;12.23;;
27794;SDS011;15176;50.844;4.412;2023-04-24T06:50:04;26.90;;;12.20;;
27794;SDS011;15176;50.844;4.412;2023-04-24T06:52:30;24.80;;;12.15;;
27794;SDS011;15176;50.844;4.412;2023-04-24T06:55:02;26.05;;;12.30;;
27794;SDS011;15176;50.844;4.412;2023-04-24T06:57:29;32.08;;;12.77;;
27794;SDS011;15176;50.844;4.412;2023-04-24T06:59:55;25.25;;;12.43;;
27794;SDS011;15176;50.844;4.412;2023-04-24T07:02:26;25.83;;;12.85;;
27794;SDS011;15176;50.844;4.412;2023-04-24T07:04:52;25.35;;;13.68;;
27794;SDS011;15176;50.844;4.412;2023-04-24T07:07:18;23.98;;;13.30;;
27794;SDS011;15176;50.844;4.412;2023-04-24T07:09:43;25.40;;;13.43;;
27794;SDS011;15176;50.844;4.412;2023-04-24T07:12:10;27.10;;;12.25;;
27794;SDS011;15176;50.844;4.412;2023-04-24T07:14:37;36.28;;;22.08;;
27794;SDS011;15176;50.844;4.412;2023-04-24T07:17:03;28.70;;;13.05;;
27794;SDS011;15176;50.844;4.412;2023-04-24T07:19:30;29.58;;;13.35;;
27794;SDS011;15176;50.844;4.412;2023-04-24T07:21:56;21.95;;;11.60;;
27794;SDS011;15176;50.844;4.412;2023-04-24T07:24:23;24.77;;;12.90;;
27794;SDS011;15176;50.844;4.412;2023-04-24T07:26:50;23.45;;;11.88;;
27794;SDS011;15176;50.844;4.412;2023-04-24T07:29:17;20.02;;;11.05;;
27794;SDS011;15176;50.844;4.412;2023-04-24T07:31:43;23.05;;;11.02;;
27794;SDS011;15176;50.844;4.412;2023-04-24T07:34:08;20.70;;;10.05;;
27794;SDS011;15176;50.844;4.412;2023-04-24T07:36:34;23.00;;;9.95;;
27794;SDS011;15176;50.844;4.412;2023-04-24T07:39:03;19.17;;;8.75;;
27794;SDS011;15176;50.844;4.412;2023-04-24T07:41:29;16.00;;;7.72;;
27794;SDS011;15176;50.844;4.412;2023-04-24T07:43:55;23.20;;;8.45;;
27794;SDS011;15176;50.844;4.412;2023-04-24T07:46:21;19.63;;;7.28;;
27794;SDS011;15176;50.844;4.412;2023-04-24T07:48:48;11.40;;;5.93;;
27794;SDS011;15176;50.844;4.412;2023-04-24T07:51:15;15.75;;;8.10;;
27794;SDS011;15176;50.844;4.412;2023-04-24T07:53:41;16.20;;;8.35;;
27794;SDS011;15176;50.844;4.412;2023-04-24T07:56:08;19.90;;;9.90;;
27794;SDS011;15176;50.844;4.412;2023-04-24T07:58:34;21.33;;;10.10;;
27794;SDS011;15176;50.844;4.412;2023-04-24T08:00:59;22.92;;;10.65;;
27794;SDS011;15176;50.844;4.412;2023-04-24T08:03:26;21.33;;;9.82;;
27794;SDS011;15176;50.844;4.412;2023-04-24T08:05:52;20.45;;;9.55;;
27794;SDS011;15176;50.844;4.412;2023-04-24T08:08:19;25.73;;;10.43;;
27794;SDS011;15176;50.844;4.412;2023-04-24T08:10:46;29.45;;;13.57;;
27794;SDS011;15176;50.844;4.412;2023-04-24T08:13:12;19.02;;;9.35;;
27794;SDS011;15176;50.844;4.412;2023-04-24T08:15:38;18.63;;;8.52;;
27794;SDS011;15176;50.844;4.412;2023-04-24T08:18:03;17.55;;;8.63;;
27794;SDS011;15176;50.844;4.412;2023-04-24T08:20:29;19.58;;;8.70;;
27794;SDS011;15176;50.844;4.412;2023-04-24T08:22:55;22.05;;;8.07;;
27794;SDS011;15176;50.844;4.412;2023-04-24T08:25:21;13.75;;;6.78;;
27794;SDS011;15176;50.844;4.412;2023-04-24T08:27:49;20.98;;;8.05;;
27794;SDS011;15176;50.844;4.412;2023-04-24T08:30:15;14.70;;;6.70;;
27794;SDS011;15176;50.844;4.412;2023-04-24T08:32:42;20.48;;;6.97;;
27794;SDS011;15176;50.844;4.412;2023-04-24T08:35:08;18.15;;;7.30;;
27794;SDS011;15176;50.844;4.412;2023-04-24T08:37:36;19.13;;;7.05;;
27794;SDS011;15176;50.844;4.412;2023-04-24T08:40:06;16.15;;;6.57;;
27794;SDS011;15176;50.844;4.412;2023-04-24T08:42:44;15.50;;;6.15;;
27794;SDS011;15176;50.844;4.412;2023-04-24T08:45:12;17.40;;;7.13;;
27794;SDS011;15176;50.844;4.412;2023-04-24T08:47:38;14.45;;;5.93;;
27794;SDS011;15176;50.844;4.412;2023-04-24T08:50:06;13.80;;;5.05;;
27794;SDS011;15176;50.844;4.412;2023-04-24T08:52:33;16.70;;;6.18;;
27794;SDS011;15176;50.844;4.412;2023-04-24T08:55:00;18.73;;;5.65;;
27794;SDS011;15176;50.844;4.412;2023-04-24T08:57:26;12.10;;;5.57;;
27794;SDS011;15176;50.844;4.412;2023-04-24T08:59:53;12.57;;;5.45;;
27794;SDS011;15176;50.844;4.412;2023-04-24T09:02:20;14.50;;;5.07;;
27794;SDS011;15176;50.844;4.412;2023-04-24T09:04:47;14.20;;;5.45;;
27794;SDS011;15176;50.844;4.412;2023-04-24T09:07:14;13.55;;;5.13;;
27794;SDS011;15176;50.844;4.412;2023-04-24T09:09:42;18.67;;;4.85;;
27794;SDS011;15176;50.844;4.412;2023-04-24T09:12:08;10.18;;;3.72;;
27794;SDS011;15176;50.844;4.412;2023-04-24T09:14:35;10.68;;;4.50;;
27794;SDS011;15176;50.844;4.412;2023-04-24T09:17:04;11.73;;;4.63;;
27794;SDS011;15176;50.844;4.412;2023-04-24T09:19:33;11.63;;;3.70;;
27794;SDS011;15176;50.844;4.412;2023-04-24T09:22:01;14.07;;;4.05;;
27794;SDS011;15176;50.844;4.412;2023-04-24T09:24:32;9.75;;;3.67;;
27794;SDS011;15176;50.844;4.412;2023-04-24T09:26:58;15.27;;;5.70;;
27794;SDS011;15176;50.844;4.412;2023-04-24T09:29:27;11.65;;;4.18;;
27794;SDS011;15176;50.844;4.412;2023-04-24T09:31:53;13.07;;;4.55;;
27794;SDS011;15176;50.844;4.412;2023-04-24T09:34:22;11.65;;;3.25;;
27794;SDS011;15176;50.844;4.412;2023-04-24T09:36:49;12.40;;;3.63;;
27794;SDS011;15176;50.844;4.412;2023-04-24T09:39:15;13.15;;;4.30;;
27794;SDS011;15176;50.844;4.412;2023-04-24T09:44:15;10.18;;;4.00;;
27794;SDS011;15176;50.844;4.412;2023-04-24T09:46:55;9.43;;;3.60;;
27794;SDS011;15176;50.844;4.412;2023-04-24T09:49:23;10.95;;;4.05;;
27794;SDS011;15176;50.844;4.412;2023-04-24T09:51:50;15.05;;;3.97;;
27794;SDS011;15176;50.844;4.412;2023-04-24T09:54:19;9.93;;;3.60;;
27794;SDS011;15176;50.844;4.412;2023-04-24T09:56:46;10.73;;;3.85;;
27794;SDS011;15176;50.844;4.412;2023-04-24T09:59:19;9.70;;;3.63;;
27794;SDS011;15176;50.844;4.412;2023-04-24T10:01:45;12.63;;;3.75;;
27794;SDS011;15176;50.844;4.412;2023-04-24T10:06:45;11.32;;;3.72;;
27794;SDS011;15176;50.844;4.412;2023-04-24T10:09:14;8.93;;;3.38;;
27794;SDS011;15176;50.844;4.412;2023-04-24T10:11:41;11.18;;;4.05;;
27794;SDS011;15176;50.844;4.412;2023-04-24T10:14:12;12.23;;;4.10;;
27794;SDS011;15176;50.844;4.412;2023-04-24T10:16:42;10.27;;;4.32;;
27794;SDS011;15176;50.844;4.412;2023-04-24T10:19:09;9.10;;;3.35;;
27794;SDS011;15176;50.844;4.412;2023-04-24T10:21:38;9.80;;;3.20;;
27794;SDS011;15176;50.844;4.412;2023-04-24T10:24:12;9.68;;;3.25;;
27794;SDS011;15176;50.844;4.412;2023-04-24T10:26:40;12.60;;;4.07;;
27794;SDS011;15176;50.844;4.412;2023-04-24T10:29:06;12.68;;;3.83;;
27794;SDS011;15176;50.844;4.412;2023-04-24T10:31:37;11.65;;;4.55;;
27794;SDS011;15176;50.844;4.412;2023-04-24T10:34:07;10.80;;;4.25;;
27794;SDS011;15176;50.844;4.412;2023-04-24T10:36:35;10.93;;;4.30;;
27794;SDS011;15176;50.844;4.412;2023-04-24T10:39:05;8.75;;;4.05;;
27794;SDS011;15176;50.844;4.412;2023-04-24T10:41:36;9.77;;;4.65;;
27794;SDS011;15176;50.844;4.412;2023-04-24T10:44:06;9.80;;;4.40;;
27794;SDS011;15176;50.844;4.412;2023-04-24T10:46:37;14.20;;;4.65;;
27794;SDS011;15176;50.844;4.412;2023-04-24T10:49:06;9.50;;;4.25;;
27794;SDS011;15176;50.844;4.412;2023-04-24T10:51:46;14.48;;;4.43;;
27794;SDS011;15176;50.844;4.412;2023-04-24T10:54:23;11.02;;;4.22;;
27794;SDS011;15176;50.844;4.412;2023-04-24T11:02:40;11.40;;;4.70;;
27794;SDS011;15176;50.844;4.412;2023-04-24T11:05:14;11.32;;;4.80;;
27794;SDS011;15176;50.844;4.412;2023-04-24T11:11:10;11.02;;;3.83;;
27794;SDS011;15176;50.844;4.412;2023-04-24T11:16:20;10.73;;;4.47;;
27794;SDS011;15176;50.844;4.412;2023-04-24T11:18:49;12.55;;;5.00;;
27794;SDS011;15176;50.844;4.412;2023-04-24T11:21:19;10.55;;;4.55;;
27794;SDS011;15176;50.844;4.412;2023-04-24T11:23:45;9.88;;;4.75;;
27794;SDS011;15176;50.844;4.412;2023-04-24T11:26:13;10.02;;;4.03;;
27794;SDS011;15176;50.844;4.412;2023-04-24T11:28:47;11.07;;;4.22;;
27794;SDS011;15176;50.844;4.412;2023-04-24T11:34:09;11.73;;;4.72;;
27794;SDS011;15176;50.844;4.412;2023-04-24T11:36:37;9.82;;;4.82;;
27794;SDS011;15176;50.844;4.412;2023-04-24T11:39:03;8.27;;;4.28;;
27794;SDS011;15176;50.844;4.412;2023-04-24T11:41:29;14.75;;;4.90;;
27794;SDS011;15176;50.844;4.412;2023-04-24T11:43:55;13.35;;;4.53;;
27794;SDS011;15176;50.844;4.412;2023-04-24T11:46:22;12.15;;;4.50;;
27794;SDS011;15176;50.844;4.412;2023-04-24T11:48:48;9.77;;;5.22;;
27794;SDS011;15176;50.844;4.412;2023-04-24T11:51:14;10.65;;;4.97;;
27794;SDS011;15176;50.844;4.412;2023-04-24T11:53:40;14.15;;;4.80;;
27794;SDS011;15176;50.844;4.412;2023-04-24T11:56:05;12.43;;;5.30;;
27794;SDS011;15176;50.844;4.412;2023-04-24T11:58:40;8.77;;;4.70;;
27794;SDS011;15176;50.844;4.412;2023-04-24T12:01:06;10.02;;;4.72;;
27794;SDS011;15176;50.844;4.412;2023-04-24T12:03:32;12.48;;;5.10;;
27794;SDS011;15176;50.844;4.412;2023-04-24T12:06:04;12.10;;;5.07;;
27794;SDS011;15176;50.844;4.412;2023-04-24T12:08:34;10.23;;;4.95;;
27794;SDS011;15176;50.844;4.412;2023-04-24T12:11:00;11.48;;;4.90;;
27794;SDS011;15176;50.844;4.412;2023-04-24T12:13:27;12.45;;;5.22;;
27794;SDS011;15176;50.844;4.412;2023-04-24T12:15:53;11.60;;;5.38;;
27794;SDS011;15176;50.844;4.412;2023-04-24T12:18:22;11.20;;;5.75;;
27794;SDS011;15176;50.844;4.412;2023-04-24T12:20:51;13.73;;;5.22;;
27794;SDS011;15176;50.844;4.412;2023-04-24T12:23:42;11.80;;;5.30;;
27794;SDS011;15176;50.844;4.412;2023-04-24T12:26:07;14.30;;;5.88;;
27794;SDS011;15176;50.844;4.412;2023-04-24T12:28:36;12.77;;;4.88;;
27794;SDS011;15176;50.844;4.412;2023-04-24T12:31:03;10.10;;;5.18;;
27794;SDS011;15176;50.844;4.412;2023-04-24T12:33:31;12.57;;;4.85;;
27794;SDS011;15176;50.844;4.412;2023-04-24T12:35:58;10.82;;;4.47;;
27794;SDS011;15176;50.844;4.412;2023-04-24T12:38:26;8.65;;;4.45;;
27794;SDS011;15176;50.844;4.412;2023-04-24T12:41:01;13.23;;;5.05;;
27794;SDS011;15176;50.844;4.412;2023-04-24T12:43:27;9.52;;;4.15;;
27794;SDS011;15176;50.844;4.412;2023-04-24T12:45:53;8.48;;;3.63;;
27794;SDS011;15176;50.844;4.412;2023-04-24T12:48:18;12.48;;;4.15;;
27794;SDS011;15176;50.844;4.412;2023-04-24T12:50:46;9.18;;;3.53;;
27794;SDS011;15176;50.844;4.412;2023-04-24T12:53:11;11.32;;;5.68;;
27794;SDS011;15176;50.844;4.412;2023-04-24T12:55:38;25.77;;;15.32;;
27794;SDS011;15176;50.844;4.412;2023-04-24T12:58:05;10.30;;;4.50;;
27794;SDS011;15176;50.844;4.412;2023-04-24T13:00:30;8.23;;;4.25;;
27794;SDS011;15176;50.844;4.412;2023-04-24T13:02:57;8.90;;;4.13;;
27794;SDS011;15176;50.844;4.412;2023-04-24T13:05:23;9.50;;;4.07;;
27794;SDS011;15176;50.844;4.412;2023-04-24T13:07:51;9.55;;;3.97;;
27794;SDS011;15176;50.844;4.412;2023-04-24T13:10:17;9.93;;;4.07;;
27794;SDS011;15176;50.844;4.412;2023-04-24T13:12:44;6.82;;;3.05;;
27794;SDS011;15176;50.844;4.412;2023-04-24T13:15:11;6.38;;;3.72;;
27794;SDS011;15176;50.844;4.412;2023-04-24T13:17:37;7.53;;;3.70;;
27794;SDS011;15176;50.844;4.412;2023-04-24T13:20:02;6.32;;;2.88;;
27794;SDS011;15176;50.844;4.412;2023-04-24T13:22:29;8.38;;;3.20;;
27794;SDS011;15176;50.844;4.412;2023-04-24T13:24:56;8.05;;;3.30;;
27794;SDS011;15176;50.844;4.412;2023-04-24T13:27:22;9.15;;;3.78;;
27794;SDS011;15176;50.844;4.412;2023-04-24T13:29:48;8.05;;;3.10;;
27794;SDS011;15176;50.844;4.412;2023-04-24T13:32:14;9.27;;;3.00;;
27794;SDS011;15176;50.844;4.412;2023-04-24T13:34:49;6.47;;;3.00;;
27794;SDS011;15176;50.844;4.412;2023-04-24T13:37:15;14.48;;;3.00;;
27794;SDS011;15176;50.844;4.412;2023-04-24T13:39:41;6.90;;;3.10;;
27794;SDS011;15176;50.844;4.412;2023-04-24T13:42:08;8.27;;;3.20;;
27794;SDS011;15176;50.844;4.412;2023-04-24T13:44:34;12.43;;;3.40;;
27794;SDS011;15176;50.844;4.412;2023-04-24T13:47:00;7.97;;;2.70;;
27794;SDS011;15176;50.844;4.412;2023-04-24T13:49:26;9.02;;;3.05;;
27794;SDS011;15176;50.844;4.412;2023-04-24T13:51:53;9.77;;;2.97;;
27794;SDS011;15176;50.844;4.412;2023-04-24T13:54:20;9.15;;;2.95;;
27794;SDS011;15176;50.844;4.412;2023-04-24T13:56:48;8.85;;;3.17;;
27794;SDS011;15176;50.844;4.412;2023-04-24T13:59:14;6.05;;;2.60;;
27794;SDS011;15176;50.844;4.412;2023-04-24T14:01:40;6.85;;;2.58;;
27794;SDS011;15176;50.844;4.412;2023-04-24T14:04:06;15.18;;;3.45;;
27794;SDS011;15176;50.844;4.412;2023-04-24T14:06:31;10.90;;;2.95;;
27794;SDS011;15176;50.844;4.412;2023-04-24T14:08:58;6.97;;;2.67;;
27794;SDS011;15176;50.844;4.412;2023-04-24T14:11:24;7.45;;;2.83;;
27794;SDS011;15176;50.844;4.412;2023-04-24T14:13:50;6.82;;;2.22;;
27794;SDS011;15176;50.844;4.412;2023-04-24T14:16:16;6.15;;;2.47;;
27794;SDS011;15176;50.844;4.412;2023-04-24T14:18:42;6.00;;;2.00;;
27794;SDS011;15176;50.844;4.412;2023-04-24T14:21:07;5.30;;;1.90;;
27794;SDS011;15176;50.844;4.412;2023-04-24T14:23:33;8.93;;;2.08;;
27794;SDS011;15176;50.844;4.412;2023-04-24T14:26:00;10.00;;;2.90;;
27794;SDS011;15176;50.844;4.412;2023-04-24T14:28:25;7.25;;;2.10;;
27794;SDS011;15176;50.844;4.412;2023-04-24T14:30:52;5.07;;;2.10;;
27794;SDS011;15176;50.844;4.412;2023-04-24T14:33:22;5.43;;;2.00;;
27794;SDS011;15176;50.844;4.412;2023-04-24T14:35:52;6.78;;;2.10;;
27794;SDS011;15176;50.844;4.412;2023-04-24T14:38:21;7.15;;;2.10;;
27794;SDS011;15176;50.844;4.412;2023-04-24T14:40:47;7.07;;;2.40;;
27794;SDS011;15176;50.844;4.412;2023-04-24T14:43:13;5.45;;;2.20;;
27794;SDS011;15176;50.844;4.412;2023-04-24T14:45:40;7.95;;;2.20;;
27794;SDS011;15176;50.844;4.412;2023-04-24T14:48:06;7.60;;;2.45;;
27794;SDS011;15176;50.844;4.412;2023-04-24T14:50:33;6.82;;;2.08;;